Time;durP1;ratioP1;P1;durP2;ratioP2;P2;SDS_P1;SDS_P2;PMS_P1;PMS_P2;Temp;Humidity;BMP_temperature;BMP_pressure;BME280_temperature;BME280_humidity;BME280_pressure;Samples;Min_cycle;Max_cycle;Signal;HPM_P1;HPM_P2
2022/09/04 00:01:31;;;;;;;;;16.25;11.00;;;;;22.81;48.43;100745.59;5074271;27;45866;-47
2022/09/04 00:04:05;;;;;;;;;14.25;13.25;;;;;22.80;48.40;100751.88;5075679;27;45358;-48
2022/09/04 00:06:37;;;;;;;;;13.75;12.50;;;;;22.77;48.30;100747.66;5054270;27;45410;-47
2022/09/04 00:09:21;;;;;;;;;15.50;13.00;;;;;22.74;48.26;100747.88;5075550;27;47412;-47
2022/09/04 00:12:13;;;;;;;;;14.50;11.50;;;;;22.75;48.38;100752.22;5053267;28;45304;-47
2022/09/04 00:14:54;;;;;;;;;15.00;13.00;;;;;22.74;48.84;100755.88;5054784;28;45328;-47
2022/09/04 00:17:39;;;;;;;;;18.50;15.00;;;;;22.73;48.63;100760.38;5054113;28;45446;-47
2022/09/04 00:20:24;;;;;;;;;13.25;12.25;;;;;22.75;48.59;100760.22;5071961;27;46094;-48
2022/09/04 00:23:13;;;;;;;;;18.00;13.75;;;;;22.77;48.39;100769.00;5043429;27;45436;-48
2022/09/04 00:25:49;;;;;;;;;14.25;10.25;;;;;22.75;47.99;100773.56;5061288;28;45402;-50
2022/09/04 00:28:26;;;;;;;;;14.50;11.75;;;;;22.74;48.18;100770.06;5059141;27;45376;-47
2022/09/04 00:30:58;;;;;;;;;12.75;12.50;;;;;22.73;47.92;100768.38;5078314;27;45477;-48
2022/09/04 00:33:37;;;;;;;;;12.00;10.00;;;;;22.72;48.05;100776.50;5072995;27;45324;-46
2022/09/04 00:36:03;;;;;;;;;11.50;10.50;;;;;22.69;48.18;100766.91;5046718;28;45227;-47
2022/09/04 00:38:42;;;;;;;;;13.50;11.25;;;;;22.69;48.21;100774.91;5057674;28;60573;-47
2022/09/04 00:41:15;;;;;;;;;12.50;11.50;;;;;22.69;47.91;100776.72;5059097;28;46334;-49
2022/09/04 00:44:06;;;;;;;;;16.00;9.00;;;;;22.66;48.29;100780.47;5060207;28;45335;-47
2022/09/04 00:46:48;;;;;;;;;11.25;11.25;;;;;22.66;48.15;100788.47;5058140;28;45398;-48
2022/09/04 00:49:51;;;;;;;;;12.00;9.25;;;;;22.64;48.22;100777.06;5041971;28;45449;-51
2022/09/04 00:52:28;;;;;;;;;14.75;9.75;;;;;22.61;47.94;100782.66;5075561;27;45431;-50
2022/09/04 00:55:26;;;;;;;;;11.00;10.50;;;;;22.59;47.84;100783.72;5075708;27;45812;-48
2022/09/04 00:58:29;;;;;;;;;11.25;11.25;;;;;22.56;48.10;100791.00;5056865;28;45229;-51
2022/09/04 01:00:57;;;;;;;;;10.25;9.75;;;;;22.55;47.59;100791.13;5072736;27;45407;-48
2022/09/04 01:03:44;;;;;;;;;7.50;7.50;;;;;22.54;47.51;100789.41;5054789;27;45597;-51
2022/09/04 01:06:33;;;;;;;;;13.00;9.50;;;;;22.53;47.76;100790.41;5067201;28;45804;-52
2022/09/04 01:09:49;;;;;;;;;10.00;8.50;;;;;22.52;47.50;100800.22;5058350;28;45536;-49
2022/09/04 01:12:17;;;;;;;;;10.50;10.25;;;;;22.52;47.38;100802.03;5037621;27;45393;-52
2022/09/04 01:14:55;;;;;;;;;11.00;11.00;;;;;22.52;47.94;100804.69;5069202;28;45413;-50
2022/09/04 01:17:39;;;;;;;;;10.25;8.00;;;;;22.50;47.79;100799.47;5055352;28;45482;-48
2022/09/04 01:20:37;;;;;;;;;10.75;10.75;;;;;22.49;47.70;100799.59;5061808;28;45394;-47
2022/09/04 01:23:29;;;;;;;;;14.25;14.00;;;;;22.49;47.78;100804.94;5080834;27;45766;-47
2022/09/04 01:26:00;;;;;;;;;9.00;8.25;;;;;22.49;47.28;100804.94;5073429;28;46260;-51
2022/09/04 01:29:04;;;;;;;;;10.50;9.50;;;;;22.45;47.53;100808.78;5069616;27;45928;-47
2022/09/04 01:31:44;;;;;;;;;9.25;8.25;;;;;22.42;47.31;100803.72;5080165;27;45177;-52
2022/09/04 01:34:34;;;;;;;;;9.00;7.00;;;;;22.39;47.38;100812.78;5081388;27;45368;-51
2022/09/04 01:37:04;;;;;;;;;10.25;8.50;;;;;22.37;47.10;100815.56;5075981;27;45241;-52
2022/09/04 01:39:32;;;;;;;;;8.00;7.75;;;;;22.34;46.91;100818.44;5077137;27;45849;-52
2022/09/04 01:42:22;;;;;;;;;9.00;7.75;;;;;22.30;47.02;100816.16;5036978;27;45347;-50
2022/09/04 01:44:48;;;;;;;;;11.00;6.50;;;;;22.22;46.77;100819.31;5056135;28;45365;-51
2022/09/04 01:47:17;;;;;;;;;9.00;7.25;;;;;22.14;47.17;100813.75;5059462;28;72109;-48
2022/09/04 01:49:52;;;;;;;;;6.75;6.75;;;;;22.13;46.63;100822.69;5060861;28;45799;-51
2022/09/04 01:52:37;;;;;;;;;5.75;5.25;;;;;22.09;47.04;100819.41;5078250;27;45346;-49
2022/09/04 01:55:22;;;;;;;;;6.25;6.25;;;;;22.08;47.07;100824.84;5081365;27;45366;-50
2022/09/04 01:58:09;;;;;;;;;8.50;6.75;;;;;22.02;46.89;100823.47;5055623;28;46351;-50
2022/09/04 02:00:52;;;;;;;;;11.50;6.75;;;;;22.02;46.44;100822.66;5060198;27;45469;-52
2022/09/04 02:03:18;;;;;;;;;7.00;6.00;;;;;22.00;46.75;100826.25;5057196;27;45389;-49
2022/09/04 02:05:56;;;;;;;;;6.50;6.50;;;;;21.97;46.31;100820.31;5059788;28;45689;-47
2022/09/04 02:08:32;;;;;;;;;11.50;7.75;;;;;21.91;46.79;100821.63;5055021;28;46134;-49
2022/09/04 02:11:25;;;;;;;;;6.75;6.00;;;;;21.91;46.80;100823.44;5070469;27;45658;-48
2022/09/04 02:13:55;;;;;;;;;8.00;6.75;;;;;21.87;46.71;100836.13;5058170;28;45676;-47
2022/09/04 02:16:59;;;;;;;;;10.75;7.00;;;;;21.82;46.88;100840.09;5068989;28;45325;-49
2022/09/04 02:19:35;;;;;;;;;6.25;6.25;;;;;21.77;47.02;100843.09;5069527;27;46167;-51
2022/09/04 02:22:19;;;;;;;;;10.25;8.00;;;;;21.73;46.62;100834.47;5078346;28;45927;-50
2022/09/04 02:24:59;;;;;;;;;6.25;5.00;;;;;21.65;46.61;100839.50;5078027;27;45576;-49
2022/09/04 02:27:33;;;;;;;;;5.25;5.25;;;;;21.69;46.80;100846.31;5079003;27;45240;-51
2022/09/04 02:30:06;;;;;;;;;9.00;7.50;;;;;21.69;47.28;100846.31;5077134;27;46340;-51
2022/09/04 02:32:41;;;;;;;;;8.75;7.25;;;;;21.70;46.99;100853.31;5080454;27;45682;-50
2022/09/04 02:35:33;;;;;;;;;8.25;8.00;;;;;21.71;47.10;100857.72;5056419;28;45622;-48
2022/09/04 02:38:15;;;;;;;;;9.00;6.00;;;;;21.70;46.93;100858.66;5059415;28;45379;-51
2022/09/04 02:40:58;;;;;;;;;8.00;7.50;;;;;21.69;47.30;100864.09;5040690;27;45502;-48
2022/09/04 02:43:49;;;;;;;;;9.50;8.00;;;;;21.66;47.45;100865.19;5034144;27;45297;-50
2022/09/04 02:46:14;;;;;;;;;6.00;6.00;;;;;21.65;47.02;100868.78;5078767;27;45366;-48
2022/09/04 02:48:52;;;;;;;;;7.33;5.33;;;;;21.66;47.52;100867.84;5079503;27;45605;-47
2022/09/04 02:52:00;;;;;;;;;9.00;7.25;;;;;21.67;46.94;100866.84;5077825;27;45348;-48
2022/09/04 02:54:51;;;;;;;;;11.00;8.50;;;;;21.69;46.81;100869.41;5079063;27;45277;-48
2022/09/04 02:57:32;;;;;;;;;10.00;8.50;;;;;21.68;46.77;100873.06;5060113;28;45388;-50
2022/09/04 03:00:14;;;;;;;;;8.00;5.00;;;;;21.65;46.77;100876.78;5049363;28;45362;-47
2022/09/04 03:02:45;;;;;;;;;8.75;8.00;;;;;21.62;47.02;100871.69;5069318;28;46345;-51
2022/09/04 03:05:18;;;;;;;;;9.00;7.00;;;;;21.59;46.96;100877.22;5060270;27;45549;-50
2022/09/04 03:08:05;;;;;;;;;6.75;6.25;;;;;21.55;46.71;100879.25;5080200;28;45363;-52
2022/09/04 03:10:35;;;;;;;;;9.25;7.75;;;;;21.53;46.80;100872.31;5067604;27;45235;-50
2022/09/04 03:13:15;;;;;;;;;8.25;6.00;;;;;21.53;47.16;100873.19;5064952;28;47058;-50
2022/09/04 03:15:46;;;;;;;;;8.50;6.25;;;;;21.49;46.55;100869.03;5057045;28;45806;-49
2022/09/04 03:18:14;;;;;;;;;5.00;4.50;;;;;21.48;46.79;100866.47;5074279;27;45223;-50
2022/09/04 03:20:45;;;;;;;;;7.25;5.25;;;;;21.48;46.68;100877.13;5080328;28;45574;-48
2022/09/04 03:23:39;;;;;;;;;8.75;4.75;;;;;21.47;46.67;100876.28;5044497;27;51676;-47
2022/09/04 03:26:15;;;;;;;;;8.25;6.75;;;;;21.48;46.51;100878.00;5057236;27;45424;-51
2022/09/04 03:28:53;;;;;;;;;7.00;6.75;;;;;21.46;46.93;100879.03;5060466;28;45275;-49
2022/09/04 03:31:32;;;;;;;;;6.50;6.00;;;;;21.48;47.03;100877.13;5052864;27;45265;-46
2022/09/04 03:34:09;;;;;;;;;9.00;6.50;;;;;21.48;46.52;100879.78;5061699;28;46720;-47
2022/09/04 03:36:53;;;;;;;;;4.25;4.00;;;;;21.48;46.97;100879.78;5078856;27;45991;-48
2022/09/04 03:39:39;;;;;;;;;6.75;5.00;;;;;21.45;46.88;100886.16;5058346;28;45525;-52
2022/09/04 03:42:34;;;;;;;;;8.75;7.25;;;;;21.43;46.37;100888.09;5075816;27;45463;-49
2022/09/04 03:45:35;;;;;;;;;4.00;3.75;;;;;21.38;46.37;100880.41;5069682;27;46261;-49
2022/09/04 03:48:05;;;;;;;;;4.50;4.50;;;;;21.36;46.25;100884.16;5076680;27;45464;-48
2022/09/04 03:50:51;;;;;;;;;6.00;5.00;;;;;21.35;46.79;100885.09;5059188;28;45803;-46
2022/09/04 03:53:31;;;;;;;;;7.75;6.25;;;;;21.35;46.44;100880.63;5071258;27;45376;-48
2022/09/04 03:56:22;;;;;;;;;5.00;4.00;;;;;21.37;46.12;100884.03;5059590;28;45693;-47
2022/09/04 03:58:53;;;;;;;;;7.50;4.25;;;;;21.37;46.41;100886.72;5075291;27;45389;-47
2022/09/04 04:01:27;;;;;;;;;5.00;5.00;;;;;21.36;46.12;100885.00;5070780;28;45441;-47
2022/09/04 04:03:55;;;;;;;;;4.50;4.00;;;;;21.39;46.32;100892.78;5077708;27;45317;-49
2022/09/04 04:06:24;;;;;;;;;5.50;4.00;;;;;21.43;46.09;100893.41;5078820;28;46213;-51
2022/09/04 04:09:22;;;;;;;;;5.50;5.00;;;;;21.44;45.86;100900.41;5074008;27;45515;-48
2022/09/04 04:12:11;;;;;;;;;6.00;4.00;;;;;21.43;45.71;100896.06;5060700;28;45729;-48
2022/09/04 04:15:17;;;;;;;;;7.00;5.00;;;;;21.41;45.91;100896.16;5057273;28;45489;-48
2022/09/04 04:18:20;;;;;;;;;5.75;3.50;;;;;21.42;45.98;100903.22;5010784;28;45676;-47
2022/09/04 04:21:10;;;;;;;;;5.00;5.00;;;;;21.43;46.06;100909.38;5073575;27;45831;-49
2022/09/04 04:23:55;;;;;;;;;6.50;5.00;;;;;21.43;46.16;100904.06;5059558;28;45563;-50
2022/09/04 04:26:30;;;;;;;;;5.25;5.25;;;;;21.45;45.86;100906.63;5060441;28;45407;-47
2022/09/04 04:29:14;;;;;;;;;5.25;5.00;;;;;21.46;46.20;100903.00;5076512;27;45674;-47
2022/09/04 04:32:10;;;;;;;;;8.25;5.00;;;;;21.46;46.03;100895.91;5051183;28;45457;-52
2022/09/04 04:34:50;;;;;;;;;6.00;5.00;;;;;21.47;45.41;100897.56;5070023;28;45470;-48
2022/09/04 04:37:36;;;;;;;;;8.75;6.25;;;;;21.43;45.68;100906.72;5073352;27;45286;-48
2022/09/04 04:40:13;;;;;;;;;7.00;3.75;;;;;21.43;46.00;100909.38;5068987;27;47905;-48
2022/09/04 04:43:09;;;;;;;;;5.00;4.50;;;;;21.41;45.50;100919.28;5078603;28;45718;-48
2022/09/04 04:46:04;;;;;;;;;7.25;4.25;;;;;21.37;45.69;100915.13;5068708;27;45359;-48
2022/09/04 04:48:54;;;;;;;;;4.25;4.00;;;;;21.34;45.85;100908.22;5045848;28;46537;-48
2022/09/04 04:51:48;;;;;;;;;4.00;4.00;;;;;21.35;45.78;100920.53;5057470;27;47054;-50
2022/09/04 04:54:25;;;;;;;;;4.75;4.00;;;;;21.33;45.64;100921.63;5072481;28;45731;-51
2022/09/04 04:57:36;;;;;;;;;6.00;5.00;;;;;21.35;45.61;100919.69;5039862;28;45377;-50
2022/09/04 05:00:30;;;;;;;;;7.50;4.00;;;;;21.37;45.45;100934.63;5059748;27;45486;-51
2022/09/04 05:03:00;;;;;;;;;4.00;4.00;;;;;21.38;45.76;100932.81;5076364;27;45316;-53
2022/09/04 05:05:45;;;;;;;;;7.25;5.00;;;;;21.36;45.89;100930.25;5071196;27;45650;-50
2022/09/04 05:08:23;;;;;;;;;6.00;5.25;;;;;21.37;45.35;100937.28;5073857;27;45304;-50
2022/09/04 05:11:15;;;;;;;;;4.75;4.75;;;;;21.36;45.22;100937.38;5058734;28;45629;-48
2022/09/04 05:13:58;;;;;;;;;5.00;5.00;;;;;21.33;45.32;100943.75;5049108;28;46313;-52
2022/09/04 05:16:47;;;;;;;;;4.00;3.00;;;;;21.30;45.22;100944.00;5070413;28;45730;-51
2022/09/04 05:19:39;;;;;;;;;4.00;4.00;;;;;21.29;45.37;100949.41;5069799;27;45490;-51
2022/09/04 05:22:12;;;;;;;;;6.75;4.00;;;;;21.28;45.44;100951.22;5076317;27;45247;-52
2022/09/04 05:25:05;;;;;;;;;5.25;4.50;;;;;21.28;45.75;100956.53;5072139;27;46340;-49
2022/09/04 05:27:46;;;;;;;;;4.25;4.00;;;;;21.29;45.36;100960.06;5067541;28;45323;-50
2022/09/04 05:30:17;;;;;;;;;4.00;4.00;;;;;21.27;45.48;100960.16;5068844;28;45388;-53
2022/09/04 05:32:54;;;;;;;;;6.00;5.00;;;;;21.28;45.90;100964.53;5055635;28;45368;-51
2022/09/04 05:35:29;;;;;;;;;4.00;4.00;;;;;21.30;45.66;100969.75;5072687;27;45380;-51
2022/09/04 05:38:18;;;;;;;;;5.75;5.00;;;;;21.31;45.59;100979.44;5057699;28;45452;-47
2022/09/04 05:40:43;;;;;;;;;5.75;4.25;;;;;21.32;45.36;100979.34;5056822;28;45545;-49
2022/09/04 05:43:27;;;;;;;;;4.50;4.00;;;;;21.33;45.39;100974.88;5060166;27;45426;-48
2022/09/04 05:46:08;;;;;;;;;5.50;4.25;;;;;21.35;45.28;100983.59;5075369;27;46172;-50
2022/09/04 05:48:44;;;;;;;;;6.75;3.00;;;;;21.35;45.46;100984.44;5053373;28;45665;-53
2022/09/04 05:51:39;;;;;;;;;5.00;5.00;;;;;21.36;45.62;100987.97;5056162;28;45379;-51
2022/09/04 05:54:16;;;;;;;;;3.50;3.50;;;;;21.38;45.33;100988.72;5043088;28;45438;-47
2022/09/04 05:57:09;;;;;;;;;6.00;4.50;;;;;21.38;45.29;100994.88;5067664;27;45425;-47
2022/09/04 06:00:10;;;;;;;;;6.25;4.00;;;;;21.37;45.42;100993.19;5064580;27;45557;-50
2022/09/04 06:02:50;;;;;;;;;6.75;4.25;;;;;21.40;45.42;100998.28;5056857;27;45285;-51
2022/09/04 06:05:20;;;;;;;;;7.00;5.00;;;;;21.42;45.20;100991.06;5058040;28;45270;-47
2022/09/04 06:08:23;;;;;;;;;3.50;3.00;;;;;21.45;45.50;100999.81;5074081;28;45472;-52
2022/09/04 06:11:09;;;;;;;;;8.00;4.00;;;;;21.46;45.59;101005.06;5078380;28;45239;-53
2022/09/04 06:13:41;;;;;;;;;7.00;5.75;;;;;21.48;45.55;101005.81;5080316;27;45443;-51
2022/09/04 06:16:48;;;;;;;;;4.75;3.75;;;;;21.50;45.47;101003.88;5075185;28;45246;-48
2022/09/04 06:19:38;;;;;;;;;8.25;6.00;;;;;21.50;45.42;101009.22;5078757;28;46271;-48
2022/09/04 06:22:15;;;;;;;;;8.25;6.00;;;;;21.50;45.46;101011.88;5058192;28;45518;-52
2022/09/04 06:24:46;;;;;;;;;7.00;7.00;;;;;21.51;45.52;101008.22;5081176;27;45292;-47
2022/09/04 06:27:40;;;;;;;;;8.75;7.75;;;;;21.55;46.34;101014.22;5077455;27;45466;-49
2022/09/04 06:30:09;;;;;;;;;9.25;7.50;;;;;21.56;46.37;101010.59;5062486;28;45446;-49
2022/09/04 06:33:05;;;;;;;;;8.00;7.00;;;;;21.59;46.19;101018.38;5056113;28;45393;-50
2022/09/04 06:35:43;;;;;;;;;7.50;6.50;;;;;21.63;46.58;101021.69;5066976;27;45307;-50
2022/09/04 06:38:35;;;;;;;;;10.00;8.50;;;;;21.65;46.95;101022.44;5073222;27;45637;-47
2022/09/04 06:41:16;;;;;;;;;11.00;9.50;;;;;21.66;47.00;101025.00;5058069;28;47200;-52
2022/09/04 06:43:54;;;;;;;;;8.75;8.00;;;;;21.66;46.86;101025.00;5077751;27;45820;-49
2022/09/04 06:46:48;;;;;;;;;11.75;9.00;;;;;21.66;46.98;101026.81;5056985;28;45354;-53
2022/09/04 06:49:19;;;;;;;;;10.75;8.00;;;;;21.64;46.82;101034.91;5062171;27;45726;-52
2022/09/04 06:51:47;;;;;;;;;10.75;9.25;;;;;21.64;47.21;101034.91;5051662;28;47106;-48
2022/09/04 06:54:21;;;;;;;;;9.75;7.75;;;;;21.67;47.24;101036.47;5072371;27;45512;-50
2022/09/04 06:56:57;;;;;;;;;11.75;10.00;;;;;21.69;46.62;101043.44;5060147;28;45366;-52
2022/09/04 06:59:37;;;;;;;;;11.00;9.00;;;;;21.66;46.83;101048.13;5061209;27;45738;-51
2022/09/04 07:02:30;;;;;;;;;11.75;10.25;;;;;21.63;46.70;101053.66;5050966;28;46432;-50
2022/09/04 07:05:02;;;;;;;;;9.00;8.00;;;;;21.63;47.42;101046.50;5059662;27;45331;-52
2022/09/04 07:07:53;;;;;;;;;10.75;9.75;;;;;21.61;46.92;101046.59;5074157;27;45325;-52
2022/09/04 07:10:27;;;;;;;;;11.75;8.00;;;;;21.59;46.81;101045.84;5053897;28;46779;-49
2022/09/04 07:13:16;;;;;;;;;7.00;5.50;;;;;21.55;47.38;101048.84;5048172;28;45492;-51
2022/09/04 07:15:41;;;;;;;;;7.50;7.50;;;;;21.56;47.31;101046.06;5049154;28;45864;-53
2022/09/04 07:18:22;;;;;;;;;8.75;8.75;;;;;21.61;47.05;101051.94;5071004;27;45359;-49
2022/09/04 07:21:10;;;;;;;;;12.25;9.00;;;;;21.66;47.15;101059.63;5074779;27;45436;-52
2022/09/04 07:23:54;;;;;;;;;10.50;8.50;;;;;21.71;46.81;101062.81;5060954;28;47034;-52
2022/09/04 07:27:14;;;;;;;;;8.50;8.50;;;;;21.77;46.89;101064.19;5029910;28;45279;-49
2022/09/04 07:29:42;;;;;;;;;8.75;8.25;;;;;21.83;46.87;101078.91;5001866;28;45537;-56
2022/09/04 07:32:16;;;;;;;;;8.25;7.00;;;;;21.87;46.56;101078.59;5073214;28;45494;-52
2022/09/04 07:35:12;;;;;;;;;7.75;7.00;;;;;21.92;46.83;101078.25;5058577;28;48218;-48
2022/09/04 07:37:57;;;;;;;;;9.50;7.00;;;;;21.97;46.74;101079.66;5054448;28;45595;-53
2022/09/04 07:40:29;;;;;;;;;9.00;7.00;;;;;22.01;46.57;101072.31;5054621;28;45320;-49
2022/09/04 07:42:59;;;;;;;;;9.00;8.50;;;;;22.03;46.10;101074.84;5058574;27;45415;-52
2022/09/04 07:45:34;;;;;;;;;7.75;7.00;;;;;22.03;45.79;101073.06;5050365;28;46586;-52
2022/09/04 07:48:27;;;;;;;;;12.00;8.25;;;;;22.10;45.67;101078.81;5071387;27;45479;-52
2022/09/04 07:51:12;;;;;;;;;11.50;8.75;;;;;22.14;45.72;101083.81;5042187;28;45314;-51
2022/09/04 07:54:32;;;;;;;;;12.25;8.50;;;;;22.21;45.97;101084.22;5059072;27;45492;-51
2022/09/04 07:57:09;;;;;;;;;8.00;7.25;;;;;22.25;45.86;101088.38;5071282;28;45577;-49
2022/09/04 07:59:35;;;;;;;;;10.25;9.00;;;;;22.29;45.59;101099.72;5050978;28;45373;-52
2022/09/04 08:02:25;;;;;;;;;8.67;8.67;;;;;22.33;45.79;101095.88;5076247;28;45585;-49
2022/09/04 08:04:50;;;;;;;;;8.00;8.00;;;;;22.30;45.33;101091.59;5048574;28;45489;-52
2022/09/04 08:07:36;;;;;;;;;9.50;8.50;;;;;22.34;45.16;101105.56;5079545;28;45989;-50
2022/09/04 08:10:30;;;;;;;;;7.25;7.25;;;;;22.39;45.62;101102.59;5074883;28;45416;-50
2022/09/04 08:12:55;;;;;;;;;9.00;8.50;;;;;22.42;45.37;101108.56;5069291;28;45360;-53
2022/09/04 08:15:29;;;;;;;;;8.00;8.00;;;;;22.44;45.40;101111.97;5074517;28;45525;-53
2022/09/04 08:18:00;;;;;;;;;10.50;7.75;;;;;22.50;45.49;101110.66;5069679;28;46109;-52
2022/09/04 08:20:39;;;;;;;;;10.50;8.50;;;;;22.50;45.06;101102.66;5059207;28;45961;-51
2022/09/04 08:23:42;;;;;;;;;11.75;7.75;;;;;22.53;45.03;101119.31;5076521;28;45460;-49
2022/09/04 08:26:28;;;;;;;;;7.00;7.00;;;;;22.56;45.34;101120.91;5075965;28;45205;-51
2022/09/04 08:29:25;;;;;;;;;10.75;7.00;;;;;22.62;44.88;101123.13;5055555;28;46946;-50
2022/09/04 08:32:31;;;;;;;;;8.50;8.00;;;;;22.70;44.95;101115.44;5067794;28;46134;-53
2022/09/04 08:35:05;;;;;;;;;9.25;7.25;;;;;22.77;44.50;101115.84;5031806;28;45427;-51
2022/09/04 08:38:08;;;;;;;;;9.50;6.50;;;;;22.83;44.79;101117.22;5058849;28;45556;-53
2022/09/04 08:40:58;;;;;;;;;13.25;8.50;;;;;22.90;44.80;101126.47;5073791;28;46119;-52
2022/09/04 08:44:00;;;;;;;;;7.25;6.25;;;;;22.96;44.24;101123.34;5049795;28;45677;-51
2022/09/04 08:46:47;;;;;;;;;8.75;8.00;;;;;23.02;44.21;101122.91;5074229;27;45516;-51
2022/09/04 08:49:47;;;;;;;;;9.25;7.00;;;;;23.08;44.09;101127.81;5070240;27;45744;-49
2022/09/04 08:52:29;;;;;;;;;7.75;6.50;;;;;23.12;43.75;101121.31;5073873;28;47092;-49
2022/09/04 08:55:37;;;;;;;;;7.25;5.75;;;;;23.19;43.74;101129.69;5047739;28;45266;-51
2022/09/04 08:58:32;;;;;;;;;5.00;4.00;;;;;23.26;42.81;101128.28;5042802;28;45424;-50
2022/09/04 09:01:13;;;;;;;;;7.50;6.50;;;;;23.33;42.23;101136.69;5075653;28;45344;-52
2022/09/04 09:04:10;;;;;;;;;6.25;5.25;;;;;23.39;42.90;101140.72;5073334;28;45448;-51
2022/09/04 09:07:00;;;;;;;;;6.00;6.00;;;;;23.46;42.96;101134.81;5053254;28;47266;-51
2022/09/04 09:09:34;;;;;;;;;8.00;6.00;;;;;23.50;42.72;101125.59;5060105;28;45458;-54
2022/09/04 09:12:32;;;;;;;;;7.00;7.00;;;;;23.56;42.78;101124.28;5073696;28;45477;-52
2022/09/04 09:15:10;;;;;;;;;7.75;6.25;;;;;23.61;42.16;101130.13;5018366;28;46343;-54
2022/09/04 09:17:37;;;;;;;;;8.75;5.25;;;;;23.67;42.28;101127.00;5060394;28;45344;-51
2022/09/04 09:20:18;;;;;;;;;2.25;0.75;;;;;23.74;41.88;101131.88;5072760;27;45163;-50
2022/09/04 09:23:08;;;;;;;;;6.75;4.50;;;;;23.80;41.81;101134.09;5074924;28;45393;-47
2022/09/04 09:26:07;;;;;;;;;5.75;5.00;;;;;23.85;41.78;101139.94;5068360;27;45384;-48
2022/09/04 09:29:15;;;;;;;;;5.75;5.25;;;;;23.94;41.48;101138.38;5074251;28;45684;-48
2022/09/04 09:31:49;;;;;;;;;7.00;4.00;;;;;24.02;41.36;101130.63;5076241;27;45551;-52
2022/09/04 09:34:52;;;;;;;;;6.50;6.00;;;;;24.05;41.79;101127.72;5068838;28;45639;-52
2022/09/04 09:37:52;;;;;;;;;5.75;5.75;;;;;24.14;41.45;101131.50;5065021;27;45799;-49
2022/09/04 09:40:48;;;;;;;;;4.75;4.75;;;;;24.18;40.78;101127.59;5077412;27;45640;-51
2022/09/04 09:43:26;;;;;;;;;5.00;5.00;;;;;24.25;40.63;101131.50;5064862;27;45430;-52
2022/09/04 09:46:13;;;;;;;;;5.00;5.00;;;;;24.32;40.69;101134.56;5074471;27;45379;-52
2022/09/04 09:49:02;;;;;;;;;4.25;4.00;;;;;24.38;40.48;101137.59;5081565;27;45533;-50
2022/09/04 09:51:53;;;;;;;;;5.00;4.00;;;;;24.46;40.42;101136.97;5070245;27;45335;-53
2022/09/04 09:54:40;;;;;;;;;4.75;4.75;;;;;24.53;40.26;101127.53;5069649;28;45399;-52
2022/09/04 09:57:30;;;;;;;;;5.00;3.75;;;;;24.60;39.89;101128.75;5078429;27;45250;-53
2022/09/04 10:00:14;;;;;;;;;4.25;3.25;;;;;24.70;39.62;101130.66;5079922;27;46104;-48
2022/09/04 10:03:01;;;;;;;;;4.25;3.50;;;;;24.75;39.77;101125.78;5054214;28;45832;-54
2022/09/04 10:05:43;;;;;;;;;4.75;4.00;;;;;24.80;39.44;101131.63;5080521;27;45446;-53
2022/09/04 10:08:15;;;;;;;;;5.00;3.00;;;;;24.86;39.70;101133.81;5062150;28;45241;-48
2022/09/04 10:11:09;;;;;;;;;6.50;6.50;;;;;24.93;39.56;101124.31;5081040;27;45400;-52
2022/09/04 10:13:55;;;;;;;;;6.00;5.00;;;;;25.00;39.53;101121.97;5008686;28;45411;-53
2022/09/04 10:17:02;;;;;;;;;3.75;3.75;;;;;25.05;39.74;101119.75;5078145;27;45651;-48
2022/09/04 10:19:59;;;;;;;;;6.75;2.25;;;;;25.08;38.48;101119.53;5005852;28;45430;-55
2022/09/04 10:22:47;;;;;;;;;3.25;3.00;;;;;25.13;38.68;101113.78;5052449;28;46170;-53
2022/09/04 10:25:34;;;;;;;;;4.00;3.25;;;;;25.17;38.62;101115.22;5079260;27;45329;-53
2022/09/04 10:28:09;;;;;;;;;4.00;4.00;;;;;25.24;38.55;101116.41;5077478;28;45478;-54
2022/09/04 10:30:56;;;;;;;;;4.75;4.00;;;;;25.30;38.94;101107.06;5068747;28;45867;-54
2022/09/04 10:34:03;;;;;;;;;4.50;2.50;;;;;25.37;38.89;101114.47;5080636;27;46115;-47
2022/09/04 10:36:58;;;;;;;;;11.25;7.00;;;;;25.45;38.99;101111.13;5060263;27;45341;-50
2022/09/04 10:42:42;;;;;;;;;5.00;4.00;;;;;25.56;38.37;101104.88;5063501;27;45553;-47
2022/09/04 10:45:16;;;;;;;;;16.50;10.00;;;;;25.60;38.73;101105.44;5078370;27;45586;-48
2022/09/04 10:47:53;;;;;;;;;5.50;4.75;;;;;25.61;38.39;101099.97;5070338;27;46211;-49
2022/09/04 10:50:29;;;;;;;;;18.25;13.75;;;;;25.61;37.95;101099.97;5069160;28;45430;-47
2022/09/04 10:52:56;;;;;;;;;6.00;6.00;;;;;25.65;38.13;101103.22;5045022;28;45640;-46
2022/09/04 10:55:45;;;;;;;;;7.25;7.25;;;;;25.64;38.05;101090.81;5074568;27;45333;-48
2022/09/04 10:58:28;;;;;;;;;8.50;7.00;;;;;25.73;38.33;101090.03;5067723;28;45650;-46
2022/09/04 11:01:16;;;;;;;;;6.00;5.00;;;;;25.77;38.03;101091.47;5038595;27;45353;-47
2022/09/04 11:03:59;;;;;;;;;8.25;6.00;;;;;25.80;38.21;101090.34;5060108;27;45427;-48
2022/09/04 11:06:48;;;;;;;;;6.50;6.00;;;;;25.83;38.15;101084.72;5067574;27;46494;-46
2022/09/04 11:09:40;;;;;;;;;11.00;7.50;;;;;25.86;38.25;101082.63;5064857;28;45737;-50
2022/09/04 11:12:09;;;;;;;;;7.75;6.50;;;;;25.89;38.25;101079.69;5062090;28;45557;-46
2022/09/04 11:15:23;;;;;;;;;4.50;4.50;;;;;25.91;37.83;101085.75;5076046;27;45460;-57
2022/09/04 11:18:12;;;;;;;;;3.75;3.75;;;;;25.94;38.12;101090.03;5056997;27;45237;-54
2022/09/04 11:21:06;;;;;;;;;7.00;6.00;;;;;25.94;37.97;101082.84;5066688;27;45718;-54
2022/09/04 11:23:56;;;;;;;;;5.00;5.00;;;;;25.97;38.00;101072.84;5068139;27;45231;-50
2022/09/04 11:26:35;;;;;;;;;5.00;4.00;;;;;25.99;37.56;101078.91;5055195;28;45456;-54
2022/09/04 11:29:40;;;;;;;;;4.00;4.00;;;;;26.01;37.79;101079.63;5046547;28;46200;-50
2022/09/04 11:32:40;;;;;;;;;5.00;5.00;;;;;26.04;37.80;101077.53;5064994;28;48214;-53
2022/09/04 11:35:38;;;;;;;;;4.00;4.00;;;;;26.08;37.42;101083.47;5061649;27;45590;-52
2022/09/04 11:38:07;;;;;;;;;9.25;6.75;;;;;26.11;37.80;101075.16;5056538;28;45304;-53
2022/09/04 11:40:53;;;;;;;;;8.00;8.00;;;;;26.16;37.98;101072.09;5073137;28;45477;-54
2022/09/04 11:43:37;;;;;;;;;7.00;7.00;;;;;26.18;37.38;101068.28;5069899;27;45464;-53
2022/09/04 11:46:30;;;;;;;;;17.00;15.50;;;;;26.21;37.65;101065.31;5077353;27;45651;-54
2022/09/04 11:49:30;;;;;;;;;10.25;8.75;;;;;26.23;37.46;101076.75;5073395;27;45316;-52
2022/09/04 11:52:27;;;;;;;;;10.75;8.00;;;;;26.26;37.85;101065.78;5073942;27;46309;-54
2022/09/04 11:55:24;;;;;;;;;9.00;7.50;;;;;26.29;37.70;101070.00;5044653;27;45882;-54
2022/09/04 11:58:02;;;;;;;;;15.75;11.00;;;;;26.31;37.27;101070.72;5056418;28;45358;-51
2022/09/04 12:00:52;;;;;;;;;17.75;14.50;;;;;26.32;37.27;101067.06;5073021;27;45431;-54
2022/09/04 12:03:36;;;;;;;;;12.25;11.75;;;;;26.37;36.89;101074.72;5077668;27;45353;-54
2022/09/04 12:06:08;;;;;;;;;12.50;9.75;;;;;26.40;36.86;101069.91;5060204;28;45345;-51
2022/09/04 12:08:52;;;;;;;;;11.75;10.00;;;;;26.43;36.48;101068.78;5070615;27;45241;-51
2022/09/04 12:11:45;;;;;;;;;10.50;10.50;;;;;26.45;37.08;101067.66;5077377;27;45395;-53
2022/09/04 12:14:39;;;;;;;;;6.25;5.00;;;;;26.48;36.95;101062.00;5070007;27;46942;-53
2022/09/04 12:17:17;;;;;;;;;12.50;11.50;;;;;26.52;36.93;101055.41;5037944;28;46115;-49
2022/09/04 12:19:42;;;;;;;;;14.75;14.00;;;;;26.56;37.27;101057.78;5068644;28;45404;-49
2022/09/04 12:22:38;;;;;;;;;10.67;10.00;;;;;26.58;37.06;101053.13;5064728;28;45304;-51
2022/09/04 12:25:22;;;;;;;;;8.50;7.50;;;;;26.62;37.35;101052.75;5072249;27;46334;-51
2022/09/04 12:28:09;;;;;;;;;6.75;6.75;;;;;26.64;37.13;101044.56;5079117;27;45231;-51
2022/09/04 12:30:53;;;;;;;;;11.50;8.00;;;;;26.69;37.34;101050.38;5074798;27;45253;-48
2022/09/04 12:33:56;;;;;;;;;8.50;7.25;;;;;26.70;36.61;101046.69;5077966;27;46290;-52
2022/09/04 12:36:50;;;;;;;;;8.00;6.50;;;;;26.71;36.37;101048.41;5071071;27;45419;-47
2022/09/04 12:39:23;;;;;;;;;5.25;5.25;;;;;26.71;36.46;101049.25;5069644;28;45979;-51
2022/09/04 12:42:03;;;;;;;;;15.75;14.00;;;;;26.74;35.96;101040.06;5054692;28;45403;-48
2022/09/04 12:44:46;;;;;;;;;9.25;8.00;;;;;26.78;36.36;101043.31;5080257;27;45489;-50